sensor_id;sensor_type;location;lat;lon;timestamp;P1;durP1;ratioP1;P2;durP2;ratioP2
52858;SDS011;38721;53.098;6.596;2023-04-09T00:02:12;70.97;;;40.92;;
52858;SDS011;38721;53.098;6.596;2023-04-09T00:04:38;74.30;;;39.95;;
52858;SDS011;38721;53.098;6.596;2023-04-09T00:07:04;77.78;;;40.72;;
52858;SDS011;38721;53.098;6.596;2023-04-09T00:09:29;73.75;;;41.53;;
52858;SDS011;38721;53.098;6.596;2023-04-09T00:11:56;72.63;;;41.80;;
52858;SDS011;38721;53.098;6.596;2023-04-09T00:14:25;72.05;;;39.75;;
52858;SDS011;38721;53.098;6.596;2023-04-09T00:16:50;73.78;;;41.50;;
52858;SDS011;38721;53.098;6.596;2023-04-09T00:19:16;73.30;;;40.17;;
52858;SDS011;38721;53.098;6.596;2023-04-09T00:21:42;83.25;;;40.67;;
52858;SDS011;38721;53.098;6.596;2023-04-09T00:24:08;75.07;;;41.25;;
52858;SDS011;38721;53.098;6.596;2023-04-09T00:26:33;72.32;;;40.85;;
52858;SDS011;38721;53.098;6.596;2023-04-09T00:28:59;64.45;;;37.92;;
52858;SDS011;38721;53.098;6.596;2023-04-09T00:31:28;67.80;;;39.33;;
52858;SDS011;38721;53.098;6.596;2023-04-09T00:33:53;68.47;;;39.70;;
52858;SDS011;38721;53.098;6.596;2023-04-09T00:36:20;73.60;;;37.65;;
52858;SDS011;38721;53.098;6.596;2023-04-09T00:38:45;68.18;;;38.58;;
52858;SDS011;38721;53.098;6.596;2023-04-09T00:41:12;69.60;;;39.13;;
52858;SDS011;38721;53.098;6.596;2023-04-09T00:43:38;62.83;;;35.72;;
52858;SDS011;38721;53.098;6.596;2023-04-09T00:46:04;63.72;;;35.50;;
52858;SDS011;38721;53.098;6.596;2023-04-09T00:48:30;62.15;;;35.63;;
52858;SDS011;38721;53.098;6.596;2023-04-09T00:50:56;56.85;;;33.13;;
52858;SDS011;38721;53.098;6.596;2023-04-09T00:53:22;55.30;;;31.80;;
52858;SDS011;38721;53.098;6.596;2023-04-09T00:55:47;52.47;;;30.73;;
52858;SDS011;38721;53.098;6.596;2023-04-09T00:58:13;49.33;;;28.30;;
52858;SDS011;38721;53.098;6.596;2023-04-09T01:00:39;46.70;;;28.33;;
52858;SDS011;38721;53.098;6.596;2023-04-09T01:03:05;41.58;;;24.83;;
52858;SDS011;38721;53.098;6.596;2023-04-09T01:11:27;42.45;;;23.80;;
52858;SDS011;38721;53.098;6.596;2023-04-09T01:16:35;40.58;;;24.63;;
52858;SDS011;38721;53.098;6.596;2023-04-09T01:19:04;40.05;;;24.13;;
52858;SDS011;38721;53.098;6.596;2023-04-09T01:21:39;39.50;;;24.23;;
52858;SDS011;38721;53.098;6.596;2023-04-09T01:29:28;43.47;;;23.75;;
52858;SDS011;38721;53.098;6.596;2023-04-09T01:32:03;38.10;;;23.17;;
52858;SDS011;38721;53.098;6.596;2023-04-09T01:34:31;40.63;;;23.97;;
52858;SDS011;38721;53.098;6.596;2023-04-09T01:36:57;36.97;;;21.90;;
52858;SDS011;38721;53.098;6.596;2023-04-09T01:39:29;39.75;;;23.60;;
52858;SDS011;38721;53.098;6.596;2023-04-09T01:41:55;41.30;;;22.30;;
52858;SDS011;38721;53.098;6.596;2023-04-09T01:44:22;39.83;;;23.50;;
52858;SDS011;38721;53.098;6.596;2023-04-09T01:46:49;38.55;;;23.60;;
52858;SDS011;38721;53.098;6.596;2023-04-09T01:49:16;39.15;;;22.75;;
52858;SDS011;38721;53.098;6.596;2023-04-09T01:51:43;41.35;;;23.77;;
52858;SDS011;38721;53.098;6.596;2023-04-09T01:54:08;38.33;;;23.40;;
52858;SDS011;38721;53.098;6.596;2023-04-09T01:56:41;38.30;;;23.42;;
52858;SDS011;38721;53.098;6.596;2023-04-09T01:59:08;39.58;;;24.17;;
52858;SDS011;38721;53.098;6.596;2023-04-09T02:01:38;43.70;;;25.10;;
52858;SDS011;38721;53.098;6.596;2023-04-09T02:04:10;39.15;;;23.02;;
52858;SDS011;38721;53.098;6.596;2023-04-09T02:09:26;40.92;;;23.73;;
52858;SDS011;38721;53.098;6.596;2023-04-09T02:11:56;42.60;;;24.23;;
52858;SDS011;38721;53.098;6.596;2023-04-09T02:14:27;41.53;;;23.48;;
52858;SDS011;38721;53.098;6.596;2023-04-09T02:16:55;39.47;;;22.42;;
52858;SDS011;38721;53.098;6.596;2023-04-09T02:19:21;40.03;;;23.48;;
52858;SDS011;38721;53.098;6.596;2023-04-09T02:21:46;39.22;;;23.98;;
52858;SDS011;38721;53.098;6.596;2023-04-09T02:24:12;42.03;;;24.33;;
52858;SDS011;38721;53.098;6.596;2023-04-09T02:26:41;40.13;;;24.08;;
52858;SDS011;38721;53.098;6.596;2023-04-09T02:29:06;42.17;;;24.42;;
52858;SDS011;38721;53.098;6.596;2023-04-09T02:31:32;44.03;;;24.42;;
52858;SDS011;38721;53.098;6.596;2023-04-09T02:33:58;38.40;;;24.02;;
52858;SDS011;38721;53.098;6.596;2023-04-09T02:36:23;37.45;;;23.17;;
52858;SDS011;38721;53.098;6.596;2023-04-09T02:38:50;42.72;;;25.23;;
52858;SDS011;38721;53.098;6.596;2023-04-09T02:41:16;42.75;;;24.75;;
52858;SDS011;38721;53.098;6.596;2023-04-09T02:43:41;39.88;;;23.77;;
52858;SDS011;38721;53.098;6.596;2023-04-09T02:46:07;40.42;;;22.98;;
52858;SDS011;38721;53.098;6.596;2023-04-09T02:48:33;39.05;;;24.17;;
52858;SDS011;38721;53.098;6.596;2023-04-09T02:50:58;38.33;;;23.08;;
52858;SDS011;38721;53.098;6.596;2023-04-09T02:53:24;48.28;;;24.48;;
52858;SDS011;38721;53.098;6.596;2023-04-09T02:55:50;44.92;;;24.95;;
52858;SDS011;38721;53.098;6.596;2023-04-09T02:58:15;40.58;;;25.55;;
52858;SDS011;38721;53.098;6.596;2023-04-09T03:00:41;39.97;;;24.25;;
52858;SDS011;38721;53.098;6.596;2023-04-09T03:03:07;40.97;;;23.63;;
52858;SDS011;38721;53.098;6.596;2023-04-09T03:05:33;38.72;;;23.98;;
52858;SDS011;38721;53.098;6.596;2023-04-09T03:08:00;39.17;;;22.90;;
52858;SDS011;38721;53.098;6.596;2023-04-09T03:10:25;40.15;;;24.60;;
52858;SDS011;38721;53.098;6.596;2023-04-09T03:12:51;41.00;;;24.63;;
52858;SDS011;38721;53.098;6.596;2023-04-09T03:15:17;39.55;;;23.45;;
52858;SDS011;38721;53.098;6.596;2023-04-09T03:17:42;43.42;;;24.98;;
52858;SDS011;38721;53.098;6.596;2023-04-09T03:20:08;39.50;;;23.88;;
52858;SDS011;38721;53.098;6.596;2023-04-09T03:22:34;43.65;;;24.65;;
52858;SDS011;38721;53.098;6.596;2023-04-09T03:25:03;44.58;;;26.63;;
52858;SDS011;38721;53.098;6.596;2023-04-09T03:27:31;44.08;;;26.33;;
52858;SDS011;38721;53.098;6.596;2023-04-09T03:29:57;44.28;;;25.42;;
52858;SDS011;38721;53.098;6.596;2023-04-09T03:32:22;45.03;;;26.25;;
52858;SDS011;38721;53.098;6.596;2023-04-09T03:34:48;43.50;;;26.40;;
52858;SDS011;38721;53.098;6.596;2023-04-09T03:37:14;41.25;;;24.27;;
52858;SDS011;38721;53.098;6.596;2023-04-09T03:39:39;44.67;;;25.08;;
52858;SDS011;38721;53.098;6.596;2023-04-09T03:42:06;44.72;;;26.02;;
52858;SDS011;38721;53.098;6.596;2023-04-09T03:44:32;45.53;;;25.98;;
52858;SDS011;38721;53.098;6.596;2023-04-09T03:46:57;43.45;;;25.77;;
52858;SDS011;38721;53.098;6.596;2023-04-09T03:49:23;40.58;;;24.85;;
52858;SDS011;38721;53.098;6.596;2023-04-09T03:51:49;47.15;;;25.23;;
52858;SDS011;38721;53.098;6.596;2023-04-09T03:54:14;40.78;;;24.33;;
52858;SDS011;38721;53.098;6.596;2023-04-09T03:56:40;44.55;;;25.15;;
52858;SDS011;38721;53.098;6.596;2023-04-09T03:59:06;45.50;;;25.50;;
52858;SDS011;38721;53.098;6.596;2023-04-09T04:01:31;46.90;;;26.77;;
52858;SDS011;38721;53.098;6.596;2023-04-09T04:03:58;41.70;;;25.45;;
52858;SDS011;38721;53.098;6.596;2023-04-09T04:06:24;40.80;;;25.23;;
52858;SDS011;38721;53.098;6.596;2023-04-09T04:08:51;44.83;;;26.38;;
52858;SDS011;38721;53.098;6.596;2023-04-09T04:11:17;43.22;;;25.27;;
52858;SDS011;38721;53.098;6.596;2023-04-09T04:13:42;44.60;;;25.05;;
52858;SDS011;38721;53.098;6.596;2023-04-09T04:16:08;47.90;;;26.00;;
52858;SDS011;38721;53.098;6.596;2023-04-09T04:18:34;44.17;;;25.70;;
52858;SDS011;38721;53.098;6.596;2023-04-09T04:21:01;46.17;;;25.90;;
52858;SDS011;38721;53.098;6.596;2023-04-09T04:23:27;42.58;;;25.13;;
52858;SDS011;38721;53.098;6.596;2023-04-09T04:25:52;42.92;;;25.25;;
52858;SDS011;38721;53.098;6.596;2023-04-09T04:28:18;47.53;;;26.70;;
52858;SDS011;38721;53.098;6.596;2023-04-09T04:30:44;45.05;;;25.25;;
52858;SDS011;38721;53.098;6.596;2023-04-09T04:33:09;44.67;;;26.38;;
52858;SDS011;38721;53.098;6.596;2023-04-09T04:35:35;45.03;;;26.88;;
52858;SDS011;38721;53.098;6.596;2023-04-09T04:38:01;43.78;;;25.85;;
52858;SDS011;38721;53.098;6.596;2023-04-09T04:40:27;43.95;;;25.90;;
52858;SDS011;38721;53.098;6.596;2023-04-09T04:42:53;43.30;;;25.15;;
52858;SDS011;38721;53.098;6.596;2023-04-09T04:45:19;43.45;;;26.42;;
52858;SDS011;38721;53.098;6.596;2023-04-09T04:47:45;46.30;;;26.33;;
52858;SDS011;38721;53.098;6.596;2023-04-09T04:50:10;43.88;;;26.48;;
52858;SDS011;38721;53.098;6.596;2023-04-09T04:52:36;42.47;;;25.83;;
52858;SDS011;38721;53.098;6.596;2023-04-09T04:55:04;46.08;;;26.83;;
52858;SDS011;38721;53.098;6.596;2023-04-09T04:57:30;42.10;;;26.25;;
52858;SDS011;38721;53.098;6.596;2023-04-09T04:59:56;46.22;;;27.77;;
52858;SDS011;38721;53.098;6.596;2023-04-09T05:02:24;45.25;;;26.52;;
52858;SDS011;38721;53.098;6.596;2023-04-09T05:04:50;44.60;;;25.90;;
52858;SDS011;38721;53.098;6.596;2023-04-09T05:07:16;48.17;;;28.05;;
52858;SDS011;38721;53.098;6.596;2023-04-09T05:09:41;43.47;;;26.60;;
52858;SDS011;38721;53.098;6.596;2023-04-09T05:12:08;46.85;;;27.23;;
52858;SDS011;38721;53.098;6.596;2023-04-09T05:14:34;45.63;;;26.65;;
52858;SDS011;38721;53.098;6.596;2023-04-09T05:17:00;48.55;;;27.20;;
52858;SDS011;38721;53.098;6.596;2023-04-09T05:19:25;48.25;;;27.55;;
52858;SDS011;38721;53.098;6.596;2023-04-09T05:21:51;52.67;;;28.45;;
52858;SDS011;38721;53.098;6.596;2023-04-09T05:24:17;52.58;;;28.52;;
52858;SDS011;38721;53.098;6.596;2023-04-09T05:26:42;42.83;;;26.45;;
52858;SDS011;38721;53.098;6.596;2023-04-09T05:29:08;45.45;;;27.02;;
52858;SDS011;38721;53.098;6.596;2023-04-09T05:31:34;45.17;;;27.63;;
52858;SDS011;38721;53.098;6.596;2023-04-09T05:33:59;47.92;;;27.33;;
52858;SDS011;38721;53.098;6.596;2023-04-09T05:36:25;43.05;;;24.58;;
52858;SDS011;38721;53.098;6.596;2023-04-09T05:38:51;40.13;;;24.45;;
52858;SDS011;38721;53.098;6.596;2023-04-09T05:41:16;38.65;;;23.85;;
52858;SDS011;38721;53.098;6.596;2023-04-09T05:43:45;34.85;;;21.95;;
52858;SDS011;38721;53.098;6.596;2023-04-09T05:46:10;32.47;;;21.88;;
52858;SDS011;38721;53.098;6.596;2023-04-09T05:48:36;33.85;;;22.10;;
52858;SDS011;38721;53.098;6.596;2023-04-09T05:51:02;35.35;;;22.15;;
52858;SDS011;38721;53.098;6.596;2023-04-09T05:53:28;43.13;;;24.58;;
52858;SDS011;38721;53.098;6.596;2023-04-09T05:55:55;40.50;;;24.08;;
52858;SDS011;38721;53.098;6.596;2023-04-09T05:58:24;38.30;;;24.42;;
52858;SDS011;38721;53.098;6.596;2023-04-09T06:00:50;37.92;;;24.05;;
52858;SDS011;38721;53.098;6.596;2023-04-09T06:03:16;37.42;;;24.58;;
52858;SDS011;38721;53.098;6.596;2023-04-09T06:05:43;40.08;;;23.85;;
52858;SDS011;38721;53.098;6.596;2023-04-09T06:08:09;41.50;;;24.88;;
52858;SDS011;38721;53.098;6.596;2023-04-09T06:10:36;38.17;;;23.58;;
52858;SDS011;38721;53.098;6.596;2023-04-09T06:13:02;38.20;;;24.55;;
52858;SDS011;38721;53.098;6.596;2023-04-09T06:15:30;38.85;;;23.40;;
52858;SDS011;38721;53.098;6.596;2023-04-09T06:17:56;37.15;;;23.02;;
52858;SDS011;38721;53.098;6.596;2023-04-09T06:20:22;34.00;;;21.75;;
52858;SDS011;38721;53.098;6.596;2023-04-09T06:22:47;34.70;;;22.13;;
52858;SDS011;38721;53.098;6.596;2023-04-09T06:25:13;34.75;;;22.20;;
52858;SDS011;38721;53.098;6.596;2023-04-09T06:27:41;36.03;;;21.55;;
52858;SDS011;38721;53.098;6.596;2023-04-09T06:30:07;34.60;;;21.70;;
52858;SDS011;38721;53.098;6.596;2023-04-09T06:32:33;35.20;;;21.63;;
52858;SDS011;38721;53.098;6.596;2023-04-09T06:34:59;37.83;;;21.63;;
52858;SDS011;38721;53.098;6.596;2023-04-09T06:37:25;34.78;;;21.23;;
52858;SDS011;38721;53.098;6.596;2023-04-09T06:39:50;34.35;;;22.58;;
52858;SDS011;38721;53.098;6.596;2023-04-09T06:42:16;35.38;;;22.73;;
52858;SDS011;38721;53.098;6.596;2023-04-09T06:44:42;35.30;;;22.73;;
52858;SDS011;38721;53.098;6.596;2023-04-09T06:47:07;37.95;;;22.88;;
52858;SDS011;38721;53.098;6.596;2023-04-09T06:49:36;36.90;;;22.90;;
52858;SDS011;38721;53.098;6.596;2023-04-09T06:52:02;36.95;;;23.17;;
52858;SDS011;38721;53.098;6.596;2023-04-09T06:54:28;37.05;;;22.30;;
52858;SDS011;38721;53.098;6.596;2023-04-09T06:56:54;39.30;;;24.23;;
52858;SDS011;38721;53.098;6.596;2023-04-09T06:59:20;44.80;;;26.90;;
52858;SDS011;38721;53.098;6.596;2023-04-09T07:01:45;43.92;;;26.50;;
52858;SDS011;38721;53.098;6.596;2023-04-09T07:04:11;43.75;;;27.00;;
52858;SDS011;38721;53.098;6.596;2023-04-09T07:06:40;46.53;;;28.65;;
52858;SDS011;38721;53.098;6.596;2023-04-09T07:09:05;44.63;;;26.27;;
52858;SDS011;38721;53.098;6.596;2023-04-09T07:11:31;43.85;;;26.67;;
52858;SDS011;38721;53.098;6.596;2023-04-09T07:13:57;41.53;;;26.88;;
52858;SDS011;38721;53.098;6.596;2023-04-09T07:16:23;39.38;;;25.05;;
52858;SDS011;38721;53.098;6.596;2023-04-09T07:18:49;41.80;;;26.10;;
52858;SDS011;38721;53.098;6.596;2023-04-09T07:21:15;40.22;;;26.20;;
52858;SDS011;38721;53.098;6.596;2023-04-09T07:23:41;42.03;;;26.05;;
52858;SDS011;38721;53.098;6.596;2023-04-09T07:26:09;42.50;;;25.50;;
52858;SDS011;38721;53.098;6.596;2023-04-09T07:28:35;42.42;;;25.25;;
52858;SDS011;38721;53.098;6.596;2023-04-09T07:31:01;43.53;;;25.33;;
52858;SDS011;38721;53.098;6.596;2023-04-09T07:33:27;44.92;;;26.67;;
52858;SDS011;38721;53.098;6.596;2023-04-09T07:35:53;43.35;;;25.73;;
52858;SDS011;38721;53.098;6.596;2023-04-09T07:38:20;42.38;;;25.83;;
52858;SDS011;38721;53.098;6.596;2023-04-09T07:40:45;43.83;;;26.33;;
52858;SDS011;38721;53.098;6.596;2023-04-09T07:43:11;45.90;;;27.13;;
52858;SDS011;38721;53.098;6.596;2023-04-09T07:45:37;42.47;;;27.05;;
52858;SDS011;38721;53.098;6.596;2023-04-09T07:48:02;43.70;;;26.80;;
52858;SDS011;38721;53.098;6.596;2023-04-09T07:50:28;40.90;;;25.33;;
52858;SDS011;38721;53.098;6.596;2023-04-09T07:52:54;40.63;;;24.45;;
52858;SDS011;38721;53.098;6.596;2023-04-09T07:55:20;41.92;;;26.10;;
52858;SDS011;38721;53.098;6.596;2023-04-09T07:57:45;39.92;;;24.65;;
52858;SDS011;38721;53.098;6.596;2023-04-09T08:00:12;39.50;;;26.08;;
52858;SDS011;38721;53.098;6.596;2023-04-09T08:02:39;41.50;;;26.23;;
52858;SDS011;38721;53.098;6.596;2023-04-09T08:05:04;42.90;;;26.08;;
52858;SDS011;38721;53.098;6.596;2023-04-09T08:07:31;42.92;;;25.73;;
52858;SDS011;38721;53.098;6.596;2023-04-09T08:09:57;43.45;;;26.55;;
52858;SDS011;38721;53.098;6.596;2023-04-09T08:12:23;39.13;;;25.27;;
52858;SDS011;38721;53.098;6.596;2023-04-09T08:14:48;41.78;;;25.73;;
52858;SDS011;38721;53.098;6.596;2023-04-09T08:17:14;38.63;;;25.70;;
52858;SDS011;38721;53.098;6.596;2023-04-09T08:19:40;40.00;;;25.58;;
52858;SDS011;38721;53.098;6.596;2023-04-09T08:22:08;41.42;;;25.75;;
52858;SDS011;38721;53.098;6.596;2023-04-09T08:24:34;38.75;;;24.67;;
52858;SDS011;38721;53.098;6.596;2023-04-09T08:27:00;38.30;;;24.65;;
52858;SDS011;38721;53.098;6.596;2023-04-09T08:29:26;40.08;;;26.10;;
52858;SDS011;38721;53.098;6.596;2023-04-09T08:31:52;38.25;;;26.38;;
52858;SDS011;38721;53.098;6.596;2023-04-09T08:34:18;39.28;;;26.02;;
52858;SDS011;38721;53.098;6.596;2023-04-09T08:36:46;36.92;;;24.77;;
52858;SDS011;38721;53.098;6.596;2023-04-09T08:39:12;39.42;;;25.50;;
52858;SDS011;38721;53.098;6.596;2023-04-09T08:41:40;36.63;;;25.55;;
52858;SDS011;38721;53.098;6.596;2023-04-09T08:44:08;38.50;;;25.42;;
52858;SDS011;38721;53.098;6.596;2023-04-09T08:46:34;38.15;;;25.05;;
52858;SDS011;38721;53.098;6.596;2023-04-09T08:49:01;41.67;;;24.85;;
52858;SDS011;38721;53.098;6.596;2023-04-09T08:51:26;40.30;;;26.83;;
52858;SDS011;38721;53.098;6.596;2023-04-09T08:54:01;36.05;;;25.52;;
52858;SDS011;38721;53.098;6.596;2023-04-09T08:56:27;36.05;;;25.05;;
52858;SDS011;38721;53.098;6.596;2023-04-09T08:58:53;35.63;;;25.10;;
52858;SDS011;38721;53.098;6.596;2023-04-09T09:01:29;37.08;;;25.40;;
52858;SDS011;38721;53.098;6.596;2023-04-09T09:03:59;36.85;;;25.02;;
52858;SDS011;38721;53.098;6.596;2023-04-09T09:06:28;38.83;;;24.77;;
52858;SDS011;38721;53.098;6.596;2023-04-09T09:11:32;35.83;;;24.40;;
52858;SDS011;38721;53.098;6.596;2023-04-09T09:13:59;37.85;;;25.30;;
52858;SDS011;38721;53.098;6.596;2023-04-09T09:16:26;38.03;;;25.35;;
52858;SDS011;38721;53.098;6.596;2023-04-09T09:18:52;34.03;;;23.80;;
52858;SDS011;38721;53.098;6.596;2023-04-09T09:21:20;35.45;;;24.23;;
52858;SDS011;38721;53.098;6.596;2023-04-09T09:23:46;35.58;;;24.73;;
52858;SDS011;38721;53.098;6.596;2023-04-09T09:26:19;34.13;;;23.95;;
52858;SDS011;38721;53.098;6.596;2023-04-09T09:28:47;36.08;;;23.95;;
52858;SDS011;38721;53.098;6.596;2023-04-09T09:31:13;35.47;;;24.67;;
52858;SDS011;38721;53.098;6.596;2023-04-09T09:33:40;32.40;;;23.23;;
52858;SDS011;38721;53.098;6.596;2023-04-09T09:36:06;33.03;;;22.95;;
52858;SDS011;38721;53.098;6.596;2023-04-09T09:38:55;33.50;;;22.55;;
52858;SDS011;38721;53.098;6.596;2023-04-09T09:41:21;33.92;;;23.98;;
52858;SDS011;38721;53.098;6.596;2023-04-09T09:43:48;31.67;;;21.73;;
52858;SDS011;38721;53.098;6.596;2023-04-09T09:46:14;31.90;;;22.90;;
52858;SDS011;38721;53.098;6.596;2023-04-09T09:48:40;31.88;;;23.00;;
52858;SDS011;38721;53.098;6.596;2023-04-09T09:51:08;31.88;;;23.13;;
52858;SDS011;38721;53.098;6.596;2023-04-09T09:53:38;32.55;;;23.08;;
52858;SDS011;38721;53.098;6.596;2023-04-09T09:56:11;32.00;;;23.08;;
52858;SDS011;38721;53.098;6.596;2023-04-09T09:58:51;31.88;;;22.38;;
52858;SDS011;38721;53.098;6.596;2023-04-09T10:01:26;31.45;;;22.90;;
52858;SDS011;38721;53.098;6.596;2023-04-09T10:03:52;30.88;;;22.38;;
52858;SDS011;38721;53.098;6.596;2023-04-09T10:06:20;31.80;;;22.27;;
52858;SDS011;38721;53.098;6.596;2023-04-09T10:08:47;31.67;;;23.42;;
52858;SDS011;38721;53.098;6.596;2023-04-09T10:11:14;31.98;;;22.95;;
52858;SDS011;38721;53.098;6.596;2023-04-09T10:13:43;33.05;;;23.17;;
52858;SDS011;38721;53.098;6.596;2023-04-09T10:16:14;32.78;;;22.75;;
52858;SDS011;38721;53.098;6.596;2023-04-09T10:18:41;30.25;;;22.38;;
52858;SDS011;38721;53.098;6.596;2023-04-09T10:21:17;28.98;;;22.02;;
52858;SDS011;38721;53.098;6.596;2023-04-09T10:23:52;34.70;;;24.88;;
52858;SDS011;38721;53.098;6.596;2023-04-09T10:26:18;33.60;;;23.23;;
52858;SDS011;38721;53.098;6.596;2023-04-09T10:29:01;30.48;;;22.92;;
52858;SDS011;38721;53.098;6.596;2023-04-09T10:31:47;28.77;;;21.60;;
52858;SDS011;38721;53.098;6.596;2023-04-09T10:34:20;30.67;;;21.83;;
52858;SDS011;38721;53.098;6.596;2023-04-09T10:37:06;29.98;;;22.02;;
52858;SDS011;38721;53.098;6.596;2023-04-09T10:39:36;31.42;;;22.55;;
52858;SDS011;38721;53.098;6.596;2023-04-09T10:42:17;32.45;;;23.48;;
52858;SDS011;38721;53.098;6.596;2023-04-09T10:45:05;31.98;;;22.88;;
52858;SDS011;38721;53.098;6.596;2023-04-09T10:47:36;29.90;;;22.08;;
52858;SDS011;38721;53.098;6.596;2023-04-09T10:50:23;30.58;;;22.60;;
52858;SDS011;38721;53.098;6.596;2023-04-09T10:52:51;29.80;;;21.98;;
52858;SDS011;38721;53.098;6.596;2023-04-09T10:55:35;30.38;;;21.63;;
52858;SDS011;38721;53.098;6.596;2023-04-09T10:58:07;28.23;;;21.13;;
52858;SDS011;38721;53.098;6.596;2023-04-09T11:00:38;30.13;;;22.42;;
52858;SDS011;38721;53.098;6.596;2023-04-09T11:05:34;31.15;;;21.27;;
52858;SDS011;38721;53.098;6.596;2023-04-09T11:08:11;30.80;;;22.52;;
52858;SDS011;38721;53.098;6.596;2023-04-09T11:10:38;28.10;;;21.02;;
52858;SDS011;38721;53.098;6.596;2023-04-09T11:13:06;29.45;;;21.05;;
52858;SDS011;38721;53.098;6.596;2023-04-09T11:15:35;27.65;;;20.48;;
52858;SDS011;38721;53.098;6.596;2023-04-09T11:18:01;25.55;;;19.77;;
52858;SDS011;38721;53.098;6.596;2023-04-09T11:20:27;30.02;;;21.70;;
52858;SDS011;38721;53.098;6.596;2023-04-09T11:22:55;27.92;;;20.15;;
52858;SDS011;38721;53.098;6.596;2023-04-09T11:25:24;26.67;;;19.83;;
52858;SDS011;38721;53.098;6.596;2023-04-09T11:27:51;28.80;;;20.00;;
52858;SDS011;38721;53.098;6.596;2023-04-09T11:30:18;25.42;;;19.23;;
52858;SDS011;38721;53.098;6.596;2023-04-09T11:32:44;25.52;;;19.73;;
52858;SDS011;38721;53.098;6.596;2023-04-09T11:35:14;26.42;;;20.25;;
52858;SDS011;38721;53.098;6.596;2023-04-09T11:37:44;26.00;;;19.50;;
52858;SDS011;38721;53.098;6.596;2023-04-09T11:40:24;25.42;;;19.05;;
52858;SDS011;38721;53.098;6.596;2023-04-09T11:42:51;24.95;;;18.40;;
52858;SDS011;38721;53.098;6.596;2023-04-09T11:45:22;26.02;;;19.10;;
52858;SDS011;38721;53.098;6.596;2023-04-09T11:47:52;24.17;;;18.83;;
52858;SDS011;38721;53.098;6.596;2023-04-09T11:50:19;23.98;;;18.40;;
52858;SDS011;38721;53.098;6.596;2023-04-09T11:52:46;24.75;;;18.48;;
52858;SDS011;38721;53.098;6.596;2023-04-09T11:55:31;22.30;;;17.50;;
52858;SDS011;38721;53.098;6.596;2023-04-09T11:57:58;24.92;;;18.48;;
52858;SDS011;38721;53.098;6.596;2023-04-09T12:00:25;24.92;;;19.27;;
52858;SDS011;38721;53.098;6.596;2023-04-09T12:03:01;22.73;;;18.23;;
52858;SDS011;38721;53.098;6.596;2023-04-09T12:05:29;23.98;;;17.60;;
52858;SDS011;38721;53.098;6.596;2023-04-09T12:08:00;24.63;;;17.88;;
52858;SDS011;38721;53.098;6.596;2023-04-09T12:10:29;25.15;;;18.00;;
52858;SDS011;38721;53.098;6.596;2023-04-09T12:13:04;23.25;;;17.75;;
52858;SDS011;38721;53.098;6.596;2023-04-09T12:15:32;22.50;;;17.55;;
52858;SDS011;38721;53.098;6.596;2023-04-09T12:18:00;23.58;;;17.63;;
52858;SDS011;38721;53.098;6.596;2023-04-09T12:22:56;22.85;;;17.70;;
52858;SDS011;38721;53.098;6.596;2023-04-09T12:25:24;23.13;;;18.60;;
52858;SDS011;38721;53.098;6.596;2023-04-09T12:27:49;24.40;;;17.88;;
52858;SDS011;38721;53.098;6.596;2023-04-09T12:30:15;21.15;;;17.15;;
52858;SDS011;38721;53.098;6.596;2023-04-09T12:32:41;22.48;;;17.95;;
52858;SDS011;38721;53.098;6.596;2023-04-09T12:35:08;22.73;;;18.00;;
52858;SDS011;38721;53.098;6.596;2023-04-09T12:37:35;21.85;;;16.92;;
52858;SDS011;38721;53.098;6.596;2023-04-09T12:40:01;21.90;;;17.20;;
52858;SDS011;38721;53.098;6.596;2023-04-09T12:42:27;20.60;;;17.05;;
52858;SDS011;38721;53.098;6.596;2023-04-09T12:44:53;24.85;;;17.90;;
52858;SDS011;38721;53.098;6.596;2023-04-09T12:47:18;22.80;;;17.58;;
52858;SDS011;38721;53.098;6.596;2023-04-09T12:49:44;22.00;;;17.55;;
52858;SDS011;38721;53.098;6.596;2023-04-09T12:52:11;23.08;;;17.73;;
52858;SDS011;38721;53.098;6.596;2023-04-09T12:54:37;23.40;;;18.63;;
52858;SDS011;38721;53.098;6.596;2023-04-09T12:57:04;23.15;;;17.92;;
52858;SDS011;38721;53.098;6.596;2023-04-09T12:59:30;21.27;;;17.08;;
52858;SDS011;38721;53.098;6.596;2023-04-09T13:01:56;23.80;;;17.85;;
52858;SDS011;38721;53.098;6.596;2023-04-09T13:04:21;22.73;;;17.25;;
52858;SDS011;38721;53.098;6.596;2023-04-09T13:06:47;23.60;;;18.75;;
52858;SDS011;38721;53.098;6.596;2023-04-09T13:09:13;23.25;;;18.70;;
52858;SDS011;38721;53.098;6.596;2023-04-09T13:11:39;23.48;;;18.92;;
52858;SDS011;38721;53.098;6.596;2023-04-09T13:14:05;28.48;;;18.05;;
52858;SDS011;38721;53.098;6.596;2023-04-09T13:16:31;23.05;;;17.60;;
52858;SDS011;38721;53.098;6.596;2023-04-09T13:18:56;23.35;;;17.75;;
52858;SDS011;38721;53.098;6.596;2023-04-09T13:21:22;23.48;;;17.73;;
52858;SDS011;38721;53.098;6.596;2023-04-09T13:23:48;21.17;;;17.30;;
52858;SDS011;38721;53.098;6.596;2023-04-09T13:26:14;20.33;;;16.02;;
52858;SDS011;38721;53.098;6.596;2023-04-09T13:28:40;20.63;;;16.08;;
52858;SDS011;38721;53.098;6.596;2023-04-09T13:31:05;20.55;;;15.77;;
52858;SDS011;38721;53.098;6.596;2023-04-09T13:33:31;20.27;;;16.30;;
52858;SDS011;38721;53.098;6.596;2023-04-09T13:35:57;18.98;;;15.93;;
52858;SDS011;38721;53.098;6.596;2023-04-09T13:38:23;20.90;;;16.15;;
52858;SDS011;38721;53.098;6.596;2023-04-09T13:40:48;20.52;;;16.95;;
52858;SDS011;38721;53.098;6.596;2023-04-09T13:43:14;18.83;;;15.52;;
52858;SDS011;38721;53.098;6.596;2023-04-09T13:45:40;19.38;;;15.82;;
52858;SDS011;38721;53.098;6.596;2023-04-09T13:48:05;20.33;;;16.20;;
52858;SDS011;38721;53.098;6.596;2023-04-09T13:50:31;19.38;;;15.90;;
52858;SDS011;38721;53.098;6.596;2023-04-09T13:52:57;21.52;;;16.42;;
52858;SDS011;38721;53.098;6.596;2023-04-09T13:55:23;19.95;;;15.70;;
52858;SDS011;38721;53.098;6.596;2023-04-09T13:57:49;18.77;;;15.10;;
52858;SDS011;38721;53.098;6.596;2023-04-09T14:00:15;17.45;;;14.35;;
52858;SDS011;38721;53.098;6.596;2023-04-09T14:02:41;16.95;;;14.15;;
52858;SDS011;38721;53.098;6.596;2023-04-09T14:05:07;17.70;;;13.88;;
52858;SDS011;38721;53.098;6.596;2023-04-09T14:07:33;17.10;;;13.82;;
52858;SDS011;38721;53.098;6.596;2023-04-09T14:09:58;17.42;;;13.63;;
52858;SDS011;38721;53.098;6.596;2023-04-09T14:12:24;16.17;;;13.82;;
52858;SDS011;38721;53.098;6.596;2023-04-09T14:14:50;15.68;;;13.48;;
52858;SDS011;38721;53.098;6.596;2023-04-09T14:17:16;15.70;;;12.98;;
52858;SDS011;38721;53.098;6.596;2023-04-09T14:19:44;15.45;;;13.43;;
52858;SDS011;38721;53.098;6.596;2023-04-09T14:22:10;15.52;;;13.18;;
52858;SDS011;38721;53.098;6.596;2023-04-09T14:24:36;16.45;;;13.15;;
52858;SDS011;38721;53.098;6.596;2023-04-09T14:27:06;15.90;;;13.43;;
52858;SDS011;38721;53.098;6.596;2023-04-09T14:29:36;16.02;;;12.95;;
52858;SDS011;38721;53.098;6.596;2023-04-09T14:32:02;14.85;;;12.75;;
52858;SDS011;38721;53.098;6.596;2023-04-09T14:34:30;18.13;;;14.15;;
52858;SDS011;38721;53.098;6.596;2023-04-09T14:36:56;15.35;;;13.50;;
52858;SDS011;38721;53.098;6.596;2023-04-09T14:39:22;15.75;;;13.25;;
52858;SDS011;38721;53.098;6.596;2023-04-09T14:41:47;16.98;;;13.57;;
52858;SDS011;38721;53.098;6.596;2023-04-09T14:44:13;16.38;;;12.98;;
52858;SDS011;38721;53.098;6.596;2023-04-09T14:46:38;16.30;;;13.23;;